createdAt,value
2019-01-05T16:51:11.340Z,102536.91
2019-01-05T16:57:34.605Z,102537.15
2019-01-05T17:04:02.243Z,102537.68
2019-01-05T17:10:42.175Z,102545.79
2019-01-05T17:17:12.938Z,102539.42
2019-01-05T17:23:37.552Z,102550.36
2019-01-05T17:30:02.279Z,102549.30
2019-01-05T17:36:41.795Z,102554.19
2019-01-05T17:43:12.295Z,102545.12
2019-01-05T17:49:39.698Z,102544.41
2019-01-05T17:56:19.680Z,102555.31
2019-01-05T18:02:49.976Z,102549.54
2019-01-05T18:09:26.631Z,102544.34
2019-01-05T18:15:48.496Z,102544.30
2019-01-05T18:22:13.226Z,102543.45
2019-01-05T18:28:45.917Z,102538.91
2019-01-05T18:35:28.468Z,102546.13
2019-01-05T18:41:56.122Z,102554.64
2019-01-05T18:48:31.129Z,102557.26
2019-01-05T18:54:54.183Z,102545.53
2019-01-05T19:01:19.451Z,102562.68
2019-01-05T19:07:50.045Z,102552.09
2019-01-05T19:14:20.656Z,102551.66
2019-01-05T19:20:47.858Z,102541.14
2019-01-05T19:27:16.151Z,102558.00
2019-01-05T19:33:39.364Z,102556.09
2019-01-05T19:40:13.331Z,102562.03
2019-01-05T19:46:55.917Z,102574.17
2019-01-05T19:53:35.546Z,102564.66
2019-01-05T19:59:58.925Z,102584.89
2019-01-05T20:06:23.720Z,102573.11
2019-01-05T20:12:54.620Z,102584.83
2019-01-05T20:19:19.286Z,102574.42
2019-01-05T20:25:47.132Z,102570.84
2019-01-05T20:32:11.745Z,102582.63
2019-01-05T20:38:35.270Z,102584.55
2019-01-05T20:45:05.537Z,102596.91
2019-01-05T20:51:33.095Z,102589.05
2019-01-05T20:58:04.437Z,102599.42
2019-01-05T21:04:25.160Z,102597.50
2019-01-05T21:10:57.299Z,102599.77
2019-01-05T21:17:39.795Z,102588.59
2019-01-05T21:24:13.394Z,102589.90
2019-01-05T21:30:36.489Z,102581.19
2019-01-05T21:36:59.856Z,102578.72
2019-01-05T21:43:27.526Z,102571.46
2019-01-05T21:49:55.168Z,102581.16
2019-01-05T21:56:19.747Z,102571.91
2019-01-05T22:02:43.383Z,102583.77
2019-01-05T22:09:16.902Z,102572.76
2019-01-05T22:15:59.722Z,102568.75
2019-01-05T22:22:31.191Z,102566.55
2019-01-05T22:29:03.064Z,102571.80
2019-01-05T22:35:20.568Z,102569.40
2019-01-05T22:41:43.681Z,102576.52
2019-01-05T22:48:07.249Z,102562.50
2019-01-05T22:54:29.425Z,102570.14
2019-01-05T23:01:02.878Z,102555.23
2019-01-05T23:07:42.876Z,102560.89
2019-01-05T23:14:10.498Z,102568.86
2019-01-05T23:20:34.080Z,102570.95
2019-01-05T23:26:57.415Z,102583.98
2019-01-05T23:33:22.463Z,102585.25
2019-01-05T23:39:45.959Z,102587.70
2019-01-05T23:46:16.520Z,102591.63
2019-01-05T23:52:40.146Z,102593.83
2019-01-05T23:59:03.504Z,102589.78
